HomeShort term forecast

Short term forecast

Graphical weather forecast for the next 48 hours for Montreal:
Short term forecast
This weather forecast is automatically refreshed every 3 hours.

Hourly Experimental Forecast for the next 48 hours ®

Overall summary: Partly cloudy later this evening and breezy starting tomorrow morning, continuing until tomorrow evening.

 Date & Hour   Temp   Feel   Baro   Hum   Speed & Bearing   Wind Gust   Precip.%   Precip.   Visibility   Cloud cover   Conditions 
 16/10/2018 - 20:00  7.3°C  4.8°C  1012.3 hPa  67%  13.4 km/h   41.8 km/h  0%  --  16.1km  57%  Partly Cloudy 
 16/10/2018 - 21:00  7.2°C  4.4°C  1011.9 hPa  68%  15.5 km/h   43.5 km/h  6%  0.02 mm/h  16.1km  33%  Partly Cloudy 
 16/10/2018 - 22:00  6.8°C  4.0°C  1011.4 hPa  69%  15.4 km/h   40.2 km/h  0%  --  16.1km  23%  Clear 
 16/10/2018 - 23:00  6.4°C  3.5°C  1011.0 hPa  74%  14.7 km/h   40.6 km/h  5%  0.01 mm/h  16.1km  17%  Clear 
 17/10/2018 - 00:00  6.6°C  3.8°C  1010.4 hPa  71%  14.8 km/h   41.7 km/h  5%  0.02 mm/h  16.1km  23%  Clear 
 17/10/2018 - 01:00  7.0°C  4.1°C  1009.6 hPa  72%  15.2 km/h   38.3 km/h  5%  0.01 mm/h  16.1km  34%  Partly Cloudy 
 17/10/2018 - 02:00  7.0°C  4.2°C  1008.7 hPa  76%  15.6 km/h   41.7 km/h  4%  0.01 mm/h  16.1km  34%  Partly Cloudy 
 17/10/2018 - 03:00  7.6°C  4.7°C  1007.8 hPa  74%  16.5 km/h   40.2 km/h  5%  0.02 mm/h  16.1km  65%  Mostly Cloudy 
 17/10/2018 - 04:00  7.7°C  4.8°C  1007.0 hPa  74%  17.2 km/h   40.4 km/h  11%  0.07 mm/h  16.1km  67%  Mostly Cloudy 
 17/10/2018 - 05:00  7.4°C  4.3°C  1006.3 hPa  76%  17.8 km/h   41.7 km/h  11%  0.05 mm/h  16.1km  73%  Mostly Cloudy 
 17/10/2018 - 06:00  7.1°C  4.0°C  1005.8 hPa  78%  18.0 km/h   40.7 km/h  19%  0.08 mm/h  16.1km  77%  Mostly Cloudy 
 17/10/2018 - 07:00  7.0°C  3.8°C  1005.4 hPa  80%  18.7 km/h   42.4 km/h  27%  0.11 mm/h  16.1km  77%  Mostly Cloudy 
 17/10/2018 - 08:00  6.9°C  3.5°C  1005.3 hPa  83%  19.4 km/h   42.1 km/h  45%  0.21 mm/h  15.0km  79%  Mostly Cloudy 
 17/10/2018 - 09:00  7.3°C  3.8°C  1005.4 hPa  77%  22.2 km/h   43.9 km/h  32%  0.16 mm/h  16.1km  84%  Mostly Cloudy 
 17/10/2018 - 10:00  7.8°C  4.1°C  1005.3 hPa  72%  25.7 km/h   45.7 km/h  24%  0.21 mm/h  16.1km  72%  Breezy and Mostly Cloudy 
 17/10/2018 - 11:00  8.0°C  4.1°C  1005.5 hPa  68%  27.9 km/h   45.9 km/h  25%  0.27 mm/h  16.1km  64%  Breezy and Mostly Cloudy 
 17/10/2018 - 12:00  7.9°C  4.0°C  1005.6 hPa  64%  28.2 km/h   45.4 km/h  16%  0.19 mm/h  16.1km  51%  Breezy and Partly Cloudy 
 17/10/2018 - 13:00  8.0°C  4.1°C  1005.7 hPa  59%  29.0 km/h   44.7 km/h  9%  0.07 mm/h  16.1km  54%  Breezy and Partly Cloudy 
 17/10/2018 - 14:00  7.7°C  3.6°C  1006.0 hPa  56%  30.2 km/h   44.6 km/h  6%  0.02 mm/h  16.1km  62%  Breezy and Mostly Cloudy 
 17/10/2018 - 15:00  7.3°C  3.1°C  1006.6 hPa  54%  29.2 km/h   44.6 km/h  5%  0.01 mm/h  16.1km  64%  Breezy and Mostly Cloudy 
 17/10/2018 - 16:00  6.8°C  2.6°C  1007.3 hPa  53%  28.6 km/h   44.8 km/h  5%  0.02 mm/h  16.1km  83%  Breezy and Mostly Cloudy 
 17/10/2018 - 17:00  6.5°C  2.2°C  1008.1 hPa  51%  27.8 km/h   45.2 km/h  5%  0.02 mm/h  14.5km  84%  Breezy and Mostly Cloudy 
 17/10/2018 - 18:00  6.1°C  1.8°C  1009.0 hPa  51%  26.5 km/h   45.9 km/h  4%  0.01 mm/h  16.1km  65%  Breezy and Mostly Cloudy 
 17/10/2018 - 19:00  5.5°C  1.2°C  1010.2 hPa  52%  24.7 km/h   46.7 km/h  4%  0.01 mm/h  16.1km  53%  Partly Cloudy 
 17/10/2018 - 20:00  4.8°C  0.4°C  1011.2 hPa  53%  23.8 km/h   47.5 km/h  4%  0.01 mm/h  16.1km  60%  Mostly Cloudy 
 17/10/2018 - 21:00  4.2°C  -0.4°C  1012.0 hPa  54%  24.3 km/h   48.1 km/h  0%  --  16.1km  72%  Mostly Cloudy 
 17/10/2018 - 22:00  3.6°C  -1.3°C  1012.7 hPa  56%  25.1 km/h   48.4 km/h  0%  --  16.1km  79%  Breezy and Mostly Cloudy 
 17/10/2018 - 23:00  3.1°C  -2.0°C  1013.3 hPa  57%  25.8 km/h   48.5 km/h  9%  0.02 mm/h  16.1km  64%  Breezy and Mostly Cloudy 
 18/10/2018 - 00:00  2.6°C  -2.7°C  1014.1 hPa  58%  25.7 km/h   48.7 km/h  5%  0.01 mm/h  16.1km  56%  Breezy and Partly Cloudy 
 18/10/2018 - 01:00  2.0°C  -3.4°C  1014.9 hPa  59%  25.5 km/h   48.8 km/h  5%  0.01 mm/h  16.1km  54%  Breezy and Partly Cloudy 
 18/10/2018 - 02:00  1.6°C  -3.9°C  1015.8 hPa  58%  25.2 km/h   48.4 km/h  0%  --  16.1km  56%  Breezy and Partly Cloudy 
 18/10/2018 - 03:00  1.1°C  -4.5°C  1016.6 hPa  59%  25.1 km/h   47.4 km/h  0%  --  16.1km  40%  Breezy and Partly Cloudy 
 18/10/2018 - 04:00  0.7°C  -5.0°C  1017.6 hPa  59%  24.8 km/h   46.0 km/h  0%  --  16.1km  25%  Breezy and Partly Cloudy 
 18/10/2018 - 05:00  -0.1°C  -5.9°C  1018.6 hPa  61%  24.7 km/h   44.8 km/h  0%  --  16.1km  17%  Breezy 
 18/10/2018 - 06:00  -0.7°C  -6.8°C  1019.6 hPa  61%  24.3 km/h   44.4 km/h  0%  --  16.1km  8%  Breezy 
 18/10/2018 - 07:00  -1.2°C  -7.2°C  1020.6 hPa  62%  23.6 km/h   44.3 km/h  0%  --  16.1km  3%  Clear 
 18/10/2018 - 08:00  -1.1°C  -7.2°C  1021.5 hPa  60%  24.3 km/h   43.9 km/h  0%  --  16.1km  10%  Breezy 
 18/10/2018 - 09:00  -0.5°C  -6.7°C  1022.2 hPa  56%  26.1 km/h   42.8 km/h  0%  --  16.1km  15%  Breezy 
 18/10/2018 - 10:00  0.8°C  -5.1°C  1022.7 hPa  50%  27.0 km/h   41.5 km/h  0%  --  16.1km  6%  Breezy 
 18/10/2018 - 11:00  1.7°C  -4.0°C  1023.0 hPa  46%  28.0 km/h   40.3 km/h  8%  0.02 mm/h  16.1km  24%  Breezy 
 18/10/2018 - 12:00  2.7°C  -2.8°C  1023.0 hPa  42%  28.9 km/h   39.4 km/h  6%  0.01 mm/h  16.1km  25%  Breezy and Partly Cloudy 
 18/10/2018 - 13:00  3.7°C  -1.6°C  1023.0 hPa  39%  28.9 km/h   38.6 km/h  0%  --  16.1km  9%  Breezy 
 18/10/2018 - 14:00  4.3°C  -0.7°C  1022.8 hPa  37%  27.7 km/h   37.6 km/h  0%  --  16.1km  12%  Breezy 
 18/10/2018 - 15:00  4.6°C  -0.1°C  1022.8 hPa  36%  27.2 km/h   36.2 km/h  0%  --  16.1km  28%  Partly Cloudy 
 18/10/2018 - 16:00  4.6°C  -0.1°C  1022.8 hPa  35%  25.8 km/h   34.8 km/h  0%  --  16.1km  27%  Partly Cloudy 
 18/10/2018 - 17:00  4.4°C  -0.1°C  1022.9 hPa  36%  23.7 km/h   33.8 km/h  0%  --  16.1km  27%  Partly Cloudy 
 18/10/2018 - 18:00  3.8°C  -0.5°C  1023.3 hPa  38%  20.4 km/h   34.2 km/h  0%  --  16.1km  3%  Clear 
 18/10/2018 - 19:00  2.9°C  -1.1°C  1023.8 hPa  41%  17.3 km/h   34.9 km/h  0%  --  16.1km  7%  Clear 
Test

 

Past weather and reports

Past weatherFind in this section the past weather conditions, weather archive, graphics, reports and statistics.

Current conditions

Current weather condition for MontrealAll you need to know about the current weather conditions for Montreal. Weather data is updated every 10 minutes.

Weather forecast

Current Montreal weatherSince 2004, celinium.com website has provided accurate weather forecast for Montreal's island.